sensor_id;sensor_type;location;lat;lon;timestamp;P1;durP1;ratioP1;P2;durP2;ratioP2
34064;SDS011;20339;49.754;20.158;2023-10-08T00:01:45;7.80;;;3.60;;
34064;SDS011;20339;49.754;20.158;2023-10-08T00:04:19;9.10;;;4.20;;
34064;SDS011;20339;49.754;20.158;2023-10-08T00:06:52;9.50;;;3.90;;
34064;SDS011;20339;49.754;20.158;2023-10-08T00:09:24;9.80;;;3.90;;
34064;SDS011;20339;49.754;20.158;2023-10-08T00:12:01;9.60;;;4.10;;
34064;SDS011;20339;49.754;20.158;2023-10-08T00:14:35;9.30;;;4.60;;
34064;SDS011;20339;49.754;20.158;2023-10-08T00:17:15;8.30;;;4.10;;
34064;SDS011;20339;49.754;20.158;2023-10-08T00:19:51;8.30;;;3.70;;
34064;SDS011;20339;49.754;20.158;2023-10-08T00:22:28;9.20;;;4.20;;
34064;SDS011;20339;49.754;20.158;2023-10-08T00:25:04;14.90;;;4.60;;
34064;SDS011;20339;49.754;20.158;2023-10-08T00:27:44;7.30;;;4.40;;
34064;SDS011;20339;49.754;20.158;2023-10-08T00:30:22;12.00;;;5.50;;
34064;SDS011;20339;49.754;20.158;2023-10-08T00:32:54;8.80;;;4.10;;
34064;SDS011;20339;49.754;20.158;2023-10-08T00:35:31;10.90;;;4.60;;
34064;SDS011;20339;49.754;20.158;2023-10-08T00:38:10;9.30;;;3.90;;
34064;SDS011;20339;49.754;20.158;2023-10-08T00:40:48;8.40;;;4.60;;
34064;SDS011;20339;49.754;20.158;2023-10-08T00:43:32;10.60;;;4.00;;
34064;SDS011;20339;49.754;20.158;2023-10-08T00:46:07;10.60;;;4.20;;
34064;SDS011;20339;49.754;20.158;2023-10-08T00:48:46;9.30;;;3.90;;
34064;SDS011;20339;49.754;20.158;2023-10-08T00:51:28;10.50;;;4.60;;
34064;SDS011;20339;49.754;20.158;2023-10-08T00:54:08;11.70;;;4.40;;
34064;SDS011;20339;49.754;20.158;2023-10-08T00:56:53;7.40;;;4.10;;
34064;SDS011;20339;49.754;20.158;2023-10-08T00:59:26;11.20;;;4.00;;
34064;SDS011;20339;49.754;20.158;2023-10-08T01:02:14;9.00;;;4.00;;
34064;SDS011;20339;49.754;20.158;2023-10-08T01:04:53;9.40;;;4.10;;
34064;SDS011;20339;49.754;20.158;2023-10-08T01:07:33;9.60;;;4.20;;
34064;SDS011;20339;49.754;20.158;2023-10-08T01:10:12;9.10;;;3.80;;
34064;SDS011;20339;49.754;20.158;2023-10-08T01:12:51;13.30;;;4.40;;
34064;SDS011;20339;49.754;20.158;2023-10-08T01:15:33;8.90;;;4.10;;
34064;SDS011;20339;49.754;20.158;2023-10-08T01:18:09;10.50;;;4.30;;
34064;SDS011;20339;49.754;20.158;2023-10-08T01:21:01;9.60;;;4.30;;
34064;SDS011;20339;49.754;20.158;2023-10-08T01:23:39;10.30;;;4.20;;
34064;SDS011;20339;49.754;20.158;2023-10-08T01:26:11;10.10;;;4.40;;
34064;SDS011;20339;49.754;20.158;2023-10-08T01:28:43;10.50;;;4.00;;
34064;SDS011;20339;49.754;20.158;2023-10-08T01:31:15;8.30;;;4.00;;
34064;SDS011;20339;49.754;20.158;2023-10-08T01:33:46;8.10;;;4.00;;
34064;SDS011;20339;49.754;20.158;2023-10-08T01:36:25;12.00;;;4.50;;
34064;SDS011;20339;49.754;20.158;2023-10-08T01:39:01;12.20;;;4.30;;
34064;SDS011;20339;49.754;20.158;2023-10-08T01:41:34;11.80;;;4.60;;
34064;SDS011;20339;49.754;20.158;2023-10-08T01:44:16;9.00;;;4.20;;
34064;SDS011;20339;49.754;20.158;2023-10-08T01:46:52;9.80;;;4.50;;
34064;SDS011;20339;49.754;20.158;2023-10-08T01:49:29;11.80;;;4.40;;
34064;SDS011;20339;49.754;20.158;2023-10-08T01:52:09;13.60;;;4.50;;
34064;SDS011;20339;49.754;20.158;2023-10-08T01:54:52;9.20;;;4.20;;
34064;SDS011;20339;49.754;20.158;2023-10-08T01:57:26;10.10;;;4.40;;
34064;SDS011;20339;49.754;20.158;2023-10-08T01:59:59;7.90;;;4.10;;
34064;SDS011;20339;49.754;20.158;2023-10-08T02:02:34;9.10;;;3.90;;
34064;SDS011;20339;49.754;20.158;2023-10-08T02:05:09;9.60;;;4.20;;
34064;SDS011;20339;49.754;20.158;2023-10-08T02:07:43;10.10;;;4.80;;
34064;SDS011;20339;49.754;20.158;2023-10-08T02:10:15;8.90;;;4.00;;
34064;SDS011;20339;49.754;20.158;2023-10-08T02:12:53;8.40;;;4.40;;
34064;SDS011;20339;49.754;20.158;2023-10-08T02:15:33;7.90;;;3.90;;
34064;SDS011;20339;49.754;20.158;2023-10-08T02:18:13;9.80;;;4.20;;
34064;SDS011;20339;49.754;20.158;2023-10-08T02:20:47;9.20;;;4.50;;
34064;SDS011;20339;49.754;20.158;2023-10-08T02:23:21;8.40;;;3.80;;
34064;SDS011;20339;49.754;20.158;2023-10-08T02:25:56;9.30;;;4.50;;
34064;SDS011;20339;49.754;20.158;2023-10-08T02:28:27;9.30;;;4.40;;
34064;SDS011;20339;49.754;20.158;2023-10-08T02:31:00;4.50;;;2.60;;
34064;SDS011;20339;49.754;20.158;2023-10-08T02:33:32;2.30;;;1.40;;
34064;SDS011;20339;49.754;20.158;2023-10-08T02:36:10;0.80;;;0.50;;
34064;SDS011;20339;49.754;20.158;2023-10-08T02:38:48;0.30;;;0.20;;
34064;SDS011;20339;49.754;20.158;2023-10-08T02:41:27;0.20;;;0.10;;
34064;SDS011;20339;49.754;20.158;2023-10-08T02:44:07;0.10;;;0.00;;
34064;SDS011;20339;49.754;20.158;2023-10-08T02:46:40;0.50;;;0.20;;
34064;SDS011;20339;49.754;20.158;2023-10-08T02:49:20;0.70;;;0.20;;
34064;SDS011;20339;49.754;20.158;2023-10-08T02:54:45;1.00;;;0.20;;
34064;SDS011;20339;49.754;20.158;2023-10-08T02:57:23;1.40;;;0.20;;
34064;SDS011;20339;49.754;20.158;2023-10-08T02:59:59;0.10;;;0.10;;
34064;SDS011;20339;49.754;20.158;2023-10-08T03:02:32;0.00;;;0.00;;
34064;SDS011;20339;49.754;20.158;2023-10-08T03:05:09;0.10;;;0.10;;
34064;SDS011;20339;49.754;20.158;2023-10-08T03:07:41;0.40;;;0.00;;
34064;SDS011;20339;49.754;20.158;2023-10-08T03:10:19;1.00;;;0.10;;
34064;SDS011;20339;49.754;20.158;2023-10-08T03:12:52;0.70;;;0.10;;
34064;SDS011;20339;49.754;20.158;2023-10-08T03:15:24;0.10;;;0.10;;
34064;SDS011;20339;49.754;20.158;2023-10-08T03:18:01;0.20;;;0.20;;
34064;SDS011;20339;49.754;20.158;2023-10-08T03:20:41;0.20;;;0.20;;
34064;SDS011;20339;49.754;20.158;2023-10-08T03:23:21;1.40;;;0.30;;
34064;SDS011;20339;49.754;20.158;2023-10-08T03:25:59;0.20;;;0.20;;
34064;SDS011;20339;49.754;20.158;2023-10-08T03:28:40;0.20;;;0.20;;
34064;SDS011;20339;49.754;20.158;2023-10-08T03:31:11;0.10;;;0.10;;
34064;SDS011;20339;49.754;20.158;2023-10-08T03:34:15;0.30;;;0.10;;
34064;SDS011;20339;49.754;20.158;2023-10-08T03:37:04;0.20;;;0.20;;
34064;SDS011;20339;49.754;20.158;2023-10-08T03:39:45;0.10;;;0.10;;
34064;SDS011;20339;49.754;20.158;2023-10-08T03:42:34;0.20;;;0.20;;
34064;SDS011;20339;49.754;20.158;2023-10-08T03:45:14;0.30;;;0.30;;
34064;SDS011;20339;49.754;20.158;2023-10-08T03:48:06;0.20;;;0.20;;
34064;SDS011;20339;49.754;20.158;2023-10-08T03:50:47;0.20;;;0.20;;
34064;SDS011;20339;49.754;20.158;2023-10-08T03:53:39;0.70;;;0.10;;
34064;SDS011;20339;49.754;20.158;2023-10-08T03:56:43;0.10;;;0.10;;
34064;SDS011;20339;49.754;20.158;2023-10-08T03:59:22;0.20;;;0.20;;
34064;SDS011;20339;49.754;20.158;2023-10-08T04:02:14;0.20;;;0.20;;
34064;SDS011;20339;49.754;20.158;2023-10-08T04:05:07;0.20;;;0.10;;
34064;SDS011;20339;49.754;20.158;2023-10-08T04:07:55;0.80;;;0.20;;
34064;SDS011;20339;49.754;20.158;2023-10-08T04:10:53;0.30;;;0.20;;
34064;SDS011;20339;49.754;20.158;2023-10-08T04:13:40;0.20;;;0.20;;
34064;SDS011;20339;49.754;20.158;2023-10-08T04:16:22;0.30;;;0.30;;
34064;SDS011;20339;49.754;20.158;2023-10-08T04:19:00;0.30;;;0.30;;
34064;SDS011;20339;49.754;20.158;2023-10-08T04:21:33;0.50;;;0.30;;
34064;SDS011;20339;49.754;20.158;2023-10-08T04:24:21;0.10;;;0.10;;
34064;SDS011;20339;49.754;20.158;2023-10-08T04:27:03;0.10;;;0.10;;
34064;SDS011;20339;49.754;20.158;2023-10-08T04:29:44;0.10;;;0.10;;
34064;SDS011;20339;49.754;20.158;2023-10-08T04:32:29;1.90;;;0.10;;
34064;SDS011;20339;49.754;20.158;2023-10-08T04:35:10;0.90;;;0.20;;
34064;SDS011;20339;49.754;20.158;2023-10-08T04:37:52;0.10;;;0.10;;
34064;SDS011;20339;49.754;20.158;2023-10-08T04:40:34;0.00;;;0.00;;
34064;SDS011;20339;49.754;20.158;2023-10-08T04:43:22;0.10;;;0.10;;
34064;SDS011;20339;49.754;20.158;2023-10-08T04:46:02;0.90;;;0.10;;
34064;SDS011;20339;49.754;20.158;2023-10-08T04:48:56;0.10;;;0.10;;
34064;SDS011;20339;49.754;20.158;2023-10-08T04:51:33;0.20;;;0.10;;
34064;SDS011;20339;49.754;20.158;2023-10-08T04:54:15;0.90;;;0.20;;
34064;SDS011;20339;49.754;20.158;2023-10-08T04:56:58;0.30;;;0.20;;
34064;SDS011;20339;49.754;20.158;2023-10-08T04:59:43;0.40;;;0.20;;
34064;SDS011;20339;49.754;20.158;2023-10-08T05:02:24;0.50;;;0.40;;
34064;SDS011;20339;49.754;20.158;2023-10-08T05:05:20;0.20;;;0.20;;
34064;SDS011;20339;49.754;20.158;2023-10-08T05:08:06;0.20;;;0.10;;
34064;SDS011;20339;49.754;20.158;2023-10-08T05:10:59;1.10;;;0.10;;
34064;SDS011;20339;49.754;20.158;2023-10-08T05:13:43;2.30;;;0.30;;
34064;SDS011;20339;49.754;20.158;2023-10-08T05:16:43;4.20;;;0.60;;
34064;SDS011;20339;49.754;20.158;2023-10-08T05:19:38;1.60;;;0.60;;
34064;SDS011;20339;49.754;20.158;2023-10-08T05:22:54;3.40;;;0.70;;
34064;SDS011;20339;49.754;20.158;2023-10-08T05:25:37;1.60;;;0.60;;
34064;SDS011;20339;49.754;20.158;2023-10-08T05:28:26;1.40;;;0.40;;
34064;SDS011;20339;49.754;20.158;2023-10-08T05:31:08;2.00;;;0.50;;
34064;SDS011;20339;49.754;20.158;2023-10-08T05:33:55;0.50;;;0.40;;
34064;SDS011;20339;49.754;20.158;2023-10-08T05:36:47;2.80;;;0.60;;
34064;SDS011;20339;49.754;20.158;2023-10-08T05:39:38;3.50;;;0.70;;
34064;SDS011;20339;49.754;20.158;2023-10-08T05:42:22;1.30;;;0.60;;
34064;SDS011;20339;49.754;20.158;2023-10-08T05:45:00;2.00;;;0.60;;
34064;SDS011;20339;49.754;20.158;2023-10-08T05:48:05;2.30;;;0.60;;
34064;SDS011;20339;49.754;20.158;2023-10-08T05:50:53;1.70;;;0.60;;
34064;SDS011;20339;49.754;20.158;2023-10-08T05:53:43;1.00;;;0.60;;
34064;SDS011;20339;49.754;20.158;2023-10-08T05:56:24;3.60;;;0.70;;
34064;SDS011;20339;49.754;20.158;2023-10-08T05:59:28;1.70;;;0.60;;
34064;SDS011;20339;49.754;20.158;2023-10-08T06:02:07;3.30;;;0.60;;
34064;SDS011;20339;49.754;20.158;2023-10-08T06:05:23;3.90;;;1.20;;
34064;SDS011;20339;49.754;20.158;2023-10-08T06:08:01;1.50;;;0.70;;
34064;SDS011;20339;49.754;20.158;2023-10-08T06:10:55;1.80;;;0.60;;
34064;SDS011;20339;49.754;20.158;2023-10-08T06:13:32;2.50;;;0.80;;
34064;SDS011;20339;49.754;20.158;2023-10-08T06:16:23;3.60;;;0.70;;
34064;SDS011;20339;49.754;20.158;2023-10-08T06:19:16;4.70;;;1.00;;
34064;SDS011;20339;49.754;20.158;2023-10-08T06:22:02;3.00;;;0.80;;
34064;SDS011;20339;49.754;20.158;2023-10-08T06:24:41;2.70;;;0.80;;
34064;SDS011;20339;49.754;20.158;2023-10-08T06:27:43;6.00;;;1.20;;
34064;SDS011;20339;49.754;20.158;2023-10-08T06:30:23;1.30;;;0.80;;
34064;SDS011;20339;49.754;20.158;2023-10-08T06:33:03;3.10;;;0.90;;
34064;SDS011;20339;49.754;20.158;2023-10-08T06:35:41;3.00;;;0.70;;
34064;SDS011;20339;49.754;20.158;2023-10-08T06:38:25;5.10;;;0.90;;
34064;SDS011;20339;49.754;20.158;2023-10-08T06:41:02;2.90;;;1.00;;
34064;SDS011;20339;49.754;20.158;2023-10-08T06:43:52;3.70;;;1.20;;
34064;SDS011;20339;49.754;20.158;2023-10-08T06:46:33;4.50;;;1.40;;
34064;SDS011;20339;49.754;20.158;2023-10-08T06:49:15;3.60;;;1.60;;
34064;SDS011;20339;49.754;20.158;2023-10-08T06:51:51;2.70;;;1.00;;
34064;SDS011;20339;49.754;20.158;2023-10-08T06:54:23;3.50;;;1.10;;
34064;SDS011;20339;49.754;20.158;2023-10-08T06:57:02;3.50;;;1.10;;
34064;SDS011;20339;49.754;20.158;2023-10-08T06:59:44;2.70;;;1.10;;
34064;SDS011;20339;49.754;20.158;2023-10-08T07:02:23;3.60;;;1.70;;
34064;SDS011;20339;49.754;20.158;2023-10-08T07:04:58;3.90;;;1.30;;
34064;SDS011;20339;49.754;20.158;2023-10-08T07:07:41;3.50;;;1.10;;
34064;SDS011;20339;49.754;20.158;2023-10-08T07:10:18;4.60;;;0.90;;
34064;SDS011;20339;49.754;20.158;2023-10-08T07:12:59;4.90;;;1.30;;
34064;SDS011;20339;49.754;20.158;2023-10-08T07:15:36;2.10;;;1.10;;
34064;SDS011;20339;49.754;20.158;2023-10-08T07:18:17;2.10;;;0.80;;
34064;SDS011;20339;49.754;20.158;2023-10-08T07:21:12;4.40;;;1.10;;
34064;SDS011;20339;49.754;20.158;2023-10-08T07:23:52;3.40;;;1.10;;
34064;SDS011;20339;49.754;20.158;2023-10-08T07:26:31;4.10;;;1.50;;
34064;SDS011;20339;49.754;20.158;2023-10-08T07:29:14;2.40;;;1.10;;
34064;SDS011;20339;49.754;20.158;2023-10-08T07:31:50;5.00;;;1.50;;
34064;SDS011;20339;49.754;20.158;2023-10-08T07:34:23;3.20;;;1.30;;
34064;SDS011;20339;49.754;20.158;2023-10-08T07:37:00;3.20;;;1.20;;
34064;SDS011;20339;49.754;20.158;2023-10-08T07:39:37;3.70;;;1.30;;
34064;SDS011;20339;49.754;20.158;2023-10-08T07:44:55;3.60;;;1.20;;
34064;SDS011;20339;49.754;20.158;2023-10-08T07:47:38;5.30;;;1.90;;
34064;SDS011;20339;49.754;20.158;2023-10-08T07:50:12;5.90;;;1.80;;
34064;SDS011;20339;49.754;20.158;2023-10-08T07:52:44;7.00;;;2.00;;
34064;SDS011;20339;49.754;20.158;2023-10-08T07:55:22;4.50;;;2.40;;
34064;SDS011;20339;49.754;20.158;2023-10-08T07:57:55;3.50;;;1.50;;
34064;SDS011;20339;49.754;20.158;2023-10-08T08:00:27;5.60;;;2.00;;
34064;SDS011;20339;49.754;20.158;2023-10-08T08:03:07;4.60;;;2.10;;
34064;SDS011;20339;49.754;20.158;2023-10-08T08:05:39;5.70;;;2.20;;
34064;SDS011;20339;49.754;20.158;2023-10-08T08:08:15;4.70;;;2.50;;
34064;SDS011;20339;49.754;20.158;2023-10-08T08:10:55;6.00;;;2.60;;
34064;SDS011;20339;49.754;20.158;2023-10-08T08:13:33;6.20;;;2.90;;
34064;SDS011;20339;49.754;20.158;2023-10-08T08:16:06;4.60;;;2.30;;
34064;SDS011;20339;49.754;20.158;2023-10-08T08:19:04;4.40;;;2.20;;
34064;SDS011;20339;49.754;20.158;2023-10-08T08:21:45;5.80;;;2.30;;
34064;SDS011;20339;49.754;20.158;2023-10-08T08:24:20;3.60;;;2.00;;
34064;SDS011;20339;49.754;20.158;2023-10-08T08:27:07;5.60;;;2.70;;
34064;SDS011;20339;49.754;20.158;2023-10-08T08:29:52;5.30;;;2.50;;
34064;SDS011;20339;49.754;20.158;2023-10-08T08:32:39;4.30;;;2.40;;
34064;SDS011;20339;49.754;20.158;2023-10-08T08:35:12;4.60;;;2.50;;
34064;SDS011;20339;49.754;20.158;2023-10-08T08:37:47;4.40;;;2.40;;
34064;SDS011;20339;49.754;20.158;2023-10-08T08:40:22;6.80;;;2.40;;
34064;SDS011;20339;49.754;20.158;2023-10-08T08:42:55;4.00;;;2.30;;
34064;SDS011;20339;49.754;20.158;2023-10-08T08:45:31;6.60;;;2.40;;
34064;SDS011;20339;49.754;20.158;2023-10-08T08:48:09;5.60;;;2.20;;
34064;SDS011;20339;49.754;20.158;2023-10-08T08:50:46;6.10;;;2.60;;
34064;SDS011;20339;49.754;20.158;2023-10-08T08:53:23;5.60;;;2.40;;
34064;SDS011;20339;49.754;20.158;2023-10-08T08:56:05;4.00;;;2.60;;
34064;SDS011;20339;49.754;20.158;2023-10-08T08:58:39;5.90;;;2.60;;
34064;SDS011;20339;49.754;20.158;2023-10-08T09:01:18;6.40;;;2.80;;
34064;SDS011;20339;49.754;20.158;2023-10-08T09:04:01;5.10;;;2.90;;
34064;SDS011;20339;49.754;20.158;2023-10-08T09:06:49;6.40;;;3.10;;
34064;SDS011;20339;49.754;20.158;2023-10-08T09:09:22;3.80;;;2.00;;
34064;SDS011;20339;49.754;20.158;2023-10-08T09:12:10;5.60;;;3.20;;
34064;SDS011;20339;49.754;20.158;2023-10-08T09:14:48;3.40;;;2.30;;
34064;SDS011;20339;49.754;20.158;2023-10-08T09:17:25;5.20;;;2.60;;
34064;SDS011;20339;49.754;20.158;2023-10-08T09:19:58;5.80;;;3.10;;
34064;SDS011;20339;49.754;20.158;2023-10-08T09:22:36;3.80;;;2.50;;
34064;SDS011;20339;49.754;20.158;2023-10-08T09:25:08;4.70;;;2.40;;
34064;SDS011;20339;49.754;20.158;2023-10-08T09:27:45;5.50;;;2.40;;
34064;SDS011;20339;49.754;20.158;2023-10-08T09:30:25;5.90;;;2.80;;
34064;SDS011;20339;49.754;20.158;2023-10-08T09:32:58;6.80;;;2.80;;
34064;SDS011;20339;49.754;20.158;2023-10-08T09:35:32;6.00;;;2.70;;
34064;SDS011;20339;49.754;20.158;2023-10-08T09:38:06;4.60;;;2.50;;
34064;SDS011;20339;49.754;20.158;2023-10-08T09:40:42;5.20;;;2.50;;
34064;SDS011;20339;49.754;20.158;2023-10-08T09:43:17;4.10;;;2.00;;
34064;SDS011;20339;49.754;20.158;2023-10-08T09:46:00;4.20;;;2.10;;
34064;SDS011;20339;49.754;20.158;2023-10-08T09:48:38;5.40;;;2.40;;
34064;SDS011;20339;49.754;20.158;2023-10-08T09:51:19;4.90;;;2.60;;
34064;SDS011;20339;49.754;20.158;2023-10-08T09:53:56;10.00;;;3.10;;
34064;SDS011;20339;49.754;20.158;2023-10-08T09:56:38;6.50;;;2.70;;
34064;SDS011;20339;49.754;20.158;2023-10-08T09:59:13;4.70;;;2.50;;
34064;SDS011;20339;49.754;20.158;2023-10-08T10:01:49;6.50;;;2.70;;
34064;SDS011;20339;49.754;20.158;2023-10-08T10:04:26;7.50;;;2.90;;
34064;SDS011;20339;49.754;20.158;2023-10-08T10:07:09;4.20;;;2.10;;
34064;SDS011;20339;49.754;20.158;2023-10-08T10:09:51;4.30;;;2.20;;
34064;SDS011;20339;49.754;20.158;2023-10-08T10:12:26;4.80;;;2.50;;
34064;SDS011;20339;49.754;20.158;2023-10-08T10:15:01;5.30;;;2.30;;
34064;SDS011;20339;49.754;20.158;2023-10-08T10:17:40;8.20;;;2.60;;
34064;SDS011;20339;49.754;20.158;2023-10-08T10:20:21;3.80;;;2.30;;
34064;SDS011;20339;49.754;20.158;2023-10-08T10:22:58;4.50;;;2.20;;
34064;SDS011;20339;49.754;20.158;2023-10-08T10:25:57;3.80;;;2.60;;
34064;SDS011;20339;49.754;20.158;2023-10-08T10:28:34;5.30;;;2.20;;
34064;SDS011;20339;49.754;20.158;2023-10-08T10:31:20;4.00;;;2.50;;
34064;SDS011;20339;49.754;20.158;2023-10-08T10:33:56;4.50;;;2.20;;
34064;SDS011;20339;49.754;20.158;2023-10-08T10:36:39;3.90;;;2.10;;
34064;SDS011;20339;49.754;20.158;2023-10-08T10:39:27;3.80;;;1.90;;
34064;SDS011;20339;49.754;20.158;2023-10-08T10:42:06;3.10;;;1.90;;
34064;SDS011;20339;49.754;20.158;2023-10-08T10:44:52;3.70;;;1.40;;
34064;SDS011;20339;49.754;20.158;2023-10-08T10:47:28;4.40;;;1.70;;
34064;SDS011;20339;49.754;20.158;2023-10-08T10:50:16;5.50;;;1.60;;
34064;SDS011;20339;49.754;20.158;2023-10-08T10:53:01;3.00;;;1.90;;
34064;SDS011;20339;49.754;20.158;2023-10-08T10:55:42;9.70;;;1.70;;
34064;SDS011;20339;49.754;20.158;2023-10-08T10:58:30;2.40;;;1.20;;
34064;SDS011;20339;49.754;20.158;2023-10-08T11:01:10;2.80;;;1.70;;
34064;SDS011;20339;49.754;20.158;2023-10-08T11:03:55;3.00;;;1.30;;
34064;SDS011;20339;49.754;20.158;2023-10-08T11:06:35;2.00;;;1.00;;
34064;SDS011;20339;49.754;20.158;2023-10-08T11:09:11;2.80;;;1.60;;
34064;SDS011;20339;49.754;20.158;2023-10-08T11:12:00;2.30;;;1.40;;
34064;SDS011;20339;49.754;20.158;2023-10-08T11:14:43;2.50;;;1.40;;
34064;SDS011;20339;49.754;20.158;2023-10-08T11:17:25;3.20;;;1.50;;
34064;SDS011;20339;49.754;20.158;2023-10-08T11:20:01;2.80;;;1.70;;
34064;SDS011;20339;49.754;20.158;2023-10-08T11:22:56;2.00;;;1.30;;
34064;SDS011;20339;49.754;20.158;2023-10-08T11:25:59;2.30;;;1.60;;
34064;SDS011;20339;49.754;20.158;2023-10-08T11:28:36;4.90;;;1.80;;
34064;SDS011;20339;49.754;20.158;2023-10-08T11:31:18;4.60;;;2.00;;
34064;SDS011;20339;49.754;20.158;2023-10-08T11:34:01;2.80;;;1.70;;
34064;SDS011;20339;49.754;20.158;2023-10-08T11:36:43;2.90;;;1.60;;
34064;SDS011;20339;49.754;20.158;2023-10-08T11:39:25;3.60;;;1.70;;
34064;SDS011;20339;49.754;20.158;2023-10-08T11:42:18;1.60;;;1.30;;
34064;SDS011;20339;49.754;20.158;2023-10-08T11:45:23;1.90;;;1.40;;
34064;SDS011;20339;49.754;20.158;2023-10-08T11:48:08;2.80;;;1.50;;
34064;SDS011;20339;49.754;20.158;2023-10-08T11:51:01;2.70;;;1.50;;
34064;SDS011;20339;49.754;20.158;2023-10-08T11:53:51;4.40;;;1.30;;
34064;SDS011;20339;49.754;20.158;2023-10-08T12:02:00;2.20;;;1.40;;
34064;SDS011;20339;49.754;20.158;2023-10-08T12:04:37;2.10;;;1.10;;
34064;SDS011;20339;49.754;20.158;2023-10-08T12:07:19;1.70;;;1.20;;
34064;SDS011;20339;49.754;20.158;2023-10-08T12:09:57;3.60;;;1.30;;
34064;SDS011;20339;49.754;20.158;2023-10-08T12:12:31;2.00;;;1.00;;
34064;SDS011;20339;49.754;20.158;2023-10-08T12:15:05;2.70;;;1.40;;
34064;SDS011;20339;49.754;20.158;2023-10-08T12:17:59;3.40;;;1.40;;
34064;SDS011;20339;49.754;20.158;2023-10-08T12:20:47;2.40;;;1.40;;
34064;SDS011;20339;49.754;20.158;2023-10-08T12:23:23;2.10;;;1.20;;
34064;SDS011;20339;49.754;20.158;2023-10-08T12:25:59;2.60;;;1.00;;
34064;SDS011;20339;49.754;20.158;2023-10-08T12:28:38;3.40;;;1.70;;
34064;SDS011;20339;49.754;20.158;2023-10-08T12:31:17;4.20;;;1.60;;
34064;SDS011;20339;49.754;20.158;2023-10-08T12:37:02;3.30;;;1.30;;
34064;SDS011;20339;49.754;20.158;2023-10-08T12:40:07;4.90;;;1.50;;
34064;SDS011;20339;49.754;20.158;2023-10-08T12:42:52;2.00;;;1.00;;
34064;SDS011;20339;49.754;20.158;2023-10-08T12:45:24;3.60;;;1.60;;
34064;SDS011;20339;49.754;20.158;2023-10-08T12:47:59;2.00;;;1.20;;
34064;SDS011;20339;49.754;20.158;2023-10-08T12:50:32;2.10;;;1.30;;
34064;SDS011;20339;49.754;20.158;2023-10-08T12:53:15;2.50;;;1.20;;
34064;SDS011;20339;49.754;20.158;2023-10-08T12:55:52;2.50;;;1.10;;
34064;SDS011;20339;49.754;20.158;2023-10-08T12:58:27;2.50;;;1.00;;
34064;SDS011;20339;49.754;20.158;2023-10-08T13:01:07;2.40;;;1.40;;
34064;SDS011;20339;49.754;20.158;2023-10-08T13:03:43;2.40;;;1.10;;
34064;SDS011;20339;49.754;20.158;2023-10-08T13:06:18;1.80;;;1.00;;
34064;SDS011;20339;49.754;20.158;2023-10-08T13:08:58;3.30;;;0.90;;
34064;SDS011;20339;49.754;20.158;2023-10-08T13:11:49;2.50;;;1.00;;
34064;SDS011;20339;49.754;20.158;2023-10-08T13:14:24;2.20;;;1.20;;
34064;SDS011;20339;49.754;20.158;2023-10-08T13:16:57;1.50;;;1.20;;
34064;SDS011;20339;49.754;20.158;2023-10-08T13:19:32;2.60;;;1.20;;
34064;SDS011;20339;49.754;20.158;2023-10-08T13:22:13;3.70;;;1.40;;
34064;SDS011;20339;49.754;20.158;2023-10-08T13:24:55;2.20;;;1.00;;
34064;SDS011;20339;49.754;20.158;2023-10-08T13:27:43;1.90;;;1.20;;
34064;SDS011;20339;49.754;20.158;2023-10-08T13:30:27;3.70;;;1.60;;
34064;SDS011;20339;49.754;20.158;2023-10-08T13:33:07;2.20;;;1.30;;
34064;SDS011;20339;49.754;20.158;2023-10-08T13:35:55;2.40;;;1.00;;
34064;SDS011;20339;49.754;20.158;2023-10-08T13:38:30;3.20;;;1.40;;
34064;SDS011;20339;49.754;20.158;2023-10-08T13:41:06;2.40;;;1.40;;
34064;SDS011;20339;49.754;20.158;2023-10-08T13:43:45;2.40;;;1.10;;
34064;SDS011;20339;49.754;20.158;2023-10-08T13:48:55;3.30;;;1.30;;
34064;SDS011;20339;49.754;20.158;2023-10-08T13:51:29;1.50;;;1.00;;
34064;SDS011;20339;49.754;20.158;2023-10-08T13:54:06;4.70;;;1.50;;
34064;SDS011;20339;49.754;20.158;2023-10-08T13:56:40;2.50;;;1.10;;
34064;SDS011;20339;49.754;20.158;2023-10-08T13:59:18;3.00;;;1.00;;
34064;SDS011;20339;49.754;20.158;2023-10-08T14:02:00;2.80;;;1.30;;
34064;SDS011;20339;49.754;20.158;2023-10-08T14:04:43;3.80;;;1.40;;
34064;SDS011;20339;49.754;20.158;2023-10-08T14:07:19;2.90;;;1.20;;
34064;SDS011;20339;49.754;20.158;2023-10-08T14:09:54;2.00;;;1.00;;
34064;SDS011;20339;49.754;20.158;2023-10-08T14:12:34;6.00;;;1.30;;
34064;SDS011;20339;49.754;20.158;2023-10-08T14:15:10;1.90;;;1.20;;
34064;SDS011;20339;49.754;20.158;2023-10-08T14:17:57;2.70;;;1.40;;
34064;SDS011;20339;49.754;20.158;2023-10-08T14:20:35;3.00;;;0.90;;
34064;SDS011;20339;49.754;20.158;2023-10-08T14:23:10;2.50;;;0.80;;
34064;SDS011;20339;49.754;20.158;2023-10-08T14:25:45;3.40;;;1.50;;
34064;SDS011;20339;49.754;20.158;2023-10-08T14:28:24;2.50;;;1.10;;
34064;SDS011;20339;49.754;20.158;2023-10-08T14:31:09;3.50;;;1.80;;
34064;SDS011;20339;49.754;20.158;2023-10-08T14:33:50;2.10;;;1.10;;
34064;SDS011;20339;49.754;20.158;2023-10-08T14:36:33;2.10;;;1.20;;
34064;SDS011;20339;49.754;20.158;2023-10-08T14:39:24;2.30;;;1.20;;
34064;SDS011;20339;49.754;20.158;2023-10-08T14:42:18;2.30;;;1.30;;
34064;SDS011;20339;49.754;20.158;2023-10-08T14:45:23;2.70;;;1.20;;
34064;SDS011;20339;49.754;20.158;2023-10-08T14:48:00;1.50;;;0.90;;
34064;SDS011;20339;49.754;20.158;2023-10-08T14:50:44;2.20;;;1.40;;
34064;SDS011;20339;49.754;20.158;2023-10-08T14:53:31;4.40;;;1.10;;
34064;SDS011;20339;49.754;20.158;2023-10-08T14:56:15;2.60;;;1.30;;
34064;SDS011;20339;49.754;20.158;2023-10-08T14:59:05;2.20;;;1.00;;
34064;SDS011;20339;49.754;20.158;2023-10-08T15:01:54;2.40;;;1.00;;
34064;SDS011;20339;49.754;20.158;2023-10-08T15:04:33;2.10;;;1.20;;
34064;SDS011;20339;49.754;20.158;2023-10-08T15:07:18;2.80;;;1.30;;
34064;SDS011;20339;49.754;20.158;2023-10-08T15:09:56;2.50;;;1.30;;
34064;SDS011;20339;49.754;20.158;2023-10-08T15:12:38;1.80;;;1.10;;
34064;SDS011;20339;49.754;20.158;2023-10-08T15:15:14;3.50;;;1.50;;
34064;SDS011;20339;49.754;20.158;2023-10-08T15:17:54;2.00;;;1.20;;
34064;SDS011;20339;49.754;20.158;2023-10-08T15:20:35;3.30;;;1.70;;
34064;SDS011;20339;49.754;20.158;2023-10-08T15:23:24;3.70;;;1.50;;
34064;SDS011;20339;49.754;20.158;2023-10-08T15:26:05;4.00;;;2.00;;
34064;SDS011;20339;49.754;20.158;2023-10-08T15:28:47;3.40;;;1.80;;
34064;SDS011;20339;49.754;20.158;2023-10-08T15:31:26;2.50;;;1.40;;
34064;SDS011;20339;49.754;20.158;2023-10-08T15:34:28;7.10;;;2.00;;
34064;SDS011;20339;49.754;20.158;2023-10-08T15:37:10;3.30;;;1.80;;
34064;SDS011;20339;49.754;20.158;2023-10-08T15:39:58;3.70;;;1.80;;
34064;SDS011;20339;49.754;20.158;2023-10-08T15:42:40;2.70;;;1.30;;
34064;SDS011;20339;49.754;20.158;2023-10-08T15:45:34;4.40;;;1.80;;
34064;SDS011;20339;49.754;20.158;2023-10-08T15:48:23;3.30;;;1.70;;
34064;SDS011;20339;49.754;20.158;2023-10-08T15:51:20;4.70;;;1.90;;
34064;SDS011;20339;49.754;20.158;2023-10-08T15:54:02;3.60;;;1.90;;
34064;SDS011;20339;49.754;20.158;2023-10-08T15:56:47;4.30;;;1.80;;
34064;SDS011;20339;49.754;20.158;2023-10-08T15:59:38;2.60;;;1.70;;
34064;SDS011;20339;49.754;20.158;2023-10-08T16:02:19;4.50;;;2.30;;
34064;SDS011;20339;49.754;20.158;2023-10-08T16:04:56;5.20;;;2.70;;
34064;SDS011;20339;49.754;20.158;2023-10-08T16:07:34;5.40;;;3.00;;
34064;SDS011;20339;49.754;20.158;2023-10-08T16:10:20;3.90;;;1.50;;
34064;SDS011;20339;49.754;20.158;2023-10-08T16:12:57;3.60;;;2.10;;